Katharina — V2DQ5 — position and weather

sailwx.info

Track history (hours):
 
Tides and Currents Weather Stations Pressure Air Temp Water Temp Dewpoint Dewpoint Depression Visibility Wind Speed Wind Dir Waves Ship Positions

Katharina

Last reported at 2017-Nov-17 22:08 UTC. Time now 2017-Nov-19 01:29 UTC.
Position N 59°46' E 004°37'.

Length 146 m; draft 7.8 m.

Type: Ship (hazmat cat A). MMSI: 305305000.

Date/timePositionNaut miles runAvg speedWind from/ knotsBaromVisibWave heightAir tempDewpointWater temp
2017-Nov-17 22:08N 59°46' E 004°37'1 9.6
2017-Nov-17 22:00N 59°47' E 004°38'5 9.6
2017-Nov-17 21:30N 59°52' E 004°41'5 9.2
2017-Nov-17 21:00N 59°56' E 004°45'5 9.1
2017-Nov-17 20:30N 59°60' E 004°49'4 8.6
2017-Nov-17 20:00N 60°04' E 004°52'4 8.3
2017-Nov-17 19:30N 60°08' E 004°56'5 9.7
2017-Nov-17 19:00N 60°09' E 005°05'510.5
2017-Nov-17 18:29N 60°14' E 005°10'612.0
2017-Nov-17 18:00N 60°20' E 005°12'611.1
2017-Nov-17 17:30N 60°25' E 005°05'612.8
2017-Nov-17 17:00N 60°30' E 004°58'713.3
2017-Nov-17 16:30N 60°36' E 004°54'613.1
2017-Nov-17 16:00N 60°42' E 004°49'611.3
2017-Nov-17 15:30N 60°47' E 004°45'5 9.6
2017-Nov-17 15:00N 60°52' E 004°47'510.7
2017-Nov-17 14:30N 60°57' E 004°45'510.6
2017-Nov-17 14:00N 61°02' E 004°53'612.0
2017-Nov-17 13:30N 61°06' E 005°01'612.3
2017-Nov-17 13:00N 61°12' E 005°00'511.2
2017-Nov-17 12:30N 61°17' E 004°55'510.1
2017-Nov-17 12:00N 61°20' E 005°03'612.0
2017-Nov-17 11:30N 61°25' E 004°58'611.7
2017-Nov-17 11:00N 61°31' E 005°00'511.2
2017-Nov-17 10:30N 61°36' E 004°58'611.6
2017-Nov-17 10:00N 61°42' E 004°58'4 7.6
2017-Nov-17 09:30N 61°46' E 004°60'3 5.7
2017-Nov-17 09:00N 61°48' E 005°04'3 6.6
2017-Nov-17 08:30N 61°49' E 005°11'3 6.9
2017-Nov-17 08:00N 61°52' E 005°15'510.3
2017-Nov-17 07:30N 61°56' E 005°07'5 9.6
2017-Nov-17 07:00N 62°00' E 005°10'510.4
2017-Nov-17 06:30N 62°04' E 005°03'4 7.9
2017-Nov-17 06:00N 62°08' E 004°59'4 7.4
2017-Nov-17 05:30N 62°11' E 005°01'3 6.6
2017-Nov-17 05:00N 62°14' E 005°06'4 7.0
2017-Nov-17 04:30N 62°16' E 005°12'4 7.4
2017-Nov-17 04:00N 62°19' E 005°17'4 8.0
2017-Nov-17 03:30N 62°22' E 005°22'3 6.5
2017-Nov-17 03:00N 62°24' E 005°28'3 6.6
2017-Nov-17 02:30N 62°26' E 005°33'4 7.6
2017-Nov-17 02:00N 62°27' E 005°41'5 9.9
2017-Nov-17 01:30N 62°27' E 005°52'510.5
2017-Nov-17 01:00N 62°28' E 006°03'5 9.3
2017-Nov-17 00:30N 62°32' E 006°09'611.4
2017-Nov-17 00:00N 62°36' E 006°17'611.0
2017-Nov-16 23:30N 62°40' E 006°26'611.5
2017-Nov-16 23:00N 62°45' E 006°32'611.3
2017-Nov-16 22:30N 62°50' E 006°39'510.7
2017-Nov-16 22:00N 62°54' E 006°45'510.4
2017-Nov-16 21:30N 62°59' E 006°51'5 9.8
2017-Nov-16 21:00N 63°01' E 007°01'5 9.7
2017-Nov-16 20:30N 63°03' E 007°10'510.3
2017-Nov-16 20:01N 63°04' E 007°21'510.7
2017-Nov-16 19:30N 63°06' E 007°32'4 8.7
2017-Nov-16 19:00N 63°06' E 007°41'4 7.9
2017-Nov-16 18:30N 63°02' E 007°41'3 6.8
2017-Nov-16 18:00N 62°59' E 007°45'1 2.3
2017-Nov-16 17:29N 62°58' E 007°44'0 0.0
2017-Nov-16 16:59N 62°58' E 007°44'0 0.0
2017-Nov-16 16:29N 62°58' E 007°44'0 0.0
2017-Nov-16 15:59N 62°58' E 007°44'0 0.0
2017-Nov-16 15:29N 62°58' E 007°44'0 0.0
2017-Nov-16 14:59N 62°58' E 007°44'0 0.0
2017-Nov-16 14:29N 62°58' E 007°44'0 0.0
2017-Nov-16 13:59N 62°58' E 007°44'0 0.4
2017-Nov-16 13:30N 62°58' E 007°44'4 8.0
2017-Nov-16 13:00N 63°02' E 007°41'612.2
2017-Nov-16 12:30N 63°08' E 007°41'510.5
2017-Nov-16 12:00N 63°13' E 007°43'611.2
2017-Nov-16 11:30N 63°18' E 007°37'611.4
2017-Nov-16 11:00N 63°24' E 007°38'510.9
2017-Nov-16 10:30N 63°29' E 007°39'610.9
2017-Nov-16 10:00N 63°34' E 007°45'611.7
2017-Nov-16 09:30N 63°39' E 007°53'611.5
2017-Nov-16 09:00N 63°44' E 008°00'511.0
2017-Nov-16 08:30N 63°48' E 008°08'510.2
2017-Nov-16 08:00N 63°52' E 008°14'510.1
2017-Nov-16 07:30N 63°56' E 008°21'5 9.8
2017-Nov-16 07:00N 63°59' E 008°30'4010.3
2017-Nov-16 03:09N 64°22' E 009°44'210.7
2017-Nov-16 03:00N 64°23' E 009°47'510.7
2017-Nov-16 02:30N 64°26' E 009°58'510.7
2017-Nov-16 02:00N 64°29' E 010°08'510.7
2017-Nov-16 01:30N 64°31' E 010°19'510.9
2017-Nov-16 01:00N 64°34' E 010°30'510.1
2017-Nov-16 00:30N 64°36' E 010°41'5 9.9
2017-Nov-16 00:00N 64°38' E 010°52'5 9.1
2017-Nov-15 23:30N 64°36' E 011°01'510.9
2017-Nov-15 23:00N 64°31' E 011°09'510.9
2017-Nov-15 22:30N 64°29' E 011°20'5 9.9
2017-Nov-15 22:00N 64°27' E 011°31'0 0.1
2017-Nov-15 21:30N 64°27' E 011°31'0 0.0
2017-Nov-15 21:00N 64°27' E 011°31'0 0.0
2017-Nov-15 20:30N 64°27' E 011°31'0 0.0
2017-Nov-15 20:00N 64°27' E 011°31'0 0.6
2017-Nov-15 19:30N 64°27' E 011°30'5 9.7
2017-Nov-15 19:00N 64°29' E 011°19'713.0
2017-Nov-15 18:30N 64°33' E 011°07'713.6
2017-Nov-15 18:00N 64°38' E 010°57'5 9.4
2017-Nov-15 17:29N 64°41' E 010°48'510.7
2017-Nov-15 17:00N 64°44' E 010°58'612.3
2017-Nov-15 16:30N 64°49' E 011°08'5 9.6
2017-Nov-15 16:01N 64°52' E 011°16'611.8
2017-Nov-15 15:30N 64°57' E 011°23'611.3
2017-Nov-15 15:00N 65°01' E 011°32'611.6
2017-Nov-15 14:30N 65°04' E 011°45'612.3
2017-Nov-15 14:00N 65°09' E 011°50'612.3
2017-Nov-15 13:30N 65°15' E 011°56'612.4
2017-Nov-15 13:00N 65°21' E 012°02'510.6
2017-Nov-15 12:30N 65°25' E 011°56'611.2
2017-Nov-15 12:00N 65°31' E 012°01'611.9
2017-Nov-15 11:29N 65°36' E 012°10'612.2
2017-Nov-15 10:59N 65°41' E 012°15'612.0
2017-Nov-15 10:30N 65°46' E 012°22'713.2
2017-Nov-15 10:00N 65°51' E 012°32'714.1
2017-Nov-15 09:30N 65°57' E 012°43'611.6
2017-Nov-15 08:59N 65°57' E 012°58'613.1
2017-Nov-15 08:30N 65°53' E 013°09'2 3.5
2017-Nov-15 07:59N 65°51' E 013°11'0 0.0
2017-Nov-15 07:29N 65°51' E 013°11'0 0.0
2017-Nov-15 06:59N 65°51' E 013°11'0 0.0
2017-Nov-15 06:29N 65°51' E 013°11'0 0.0
2017-Nov-15 05:59N 65°51' E 013°11'0 0.0
2017-Nov-15 05:29N 65°51' E 013°11'0 0.0
2017-Nov-15 04:53N 65°51' E 013°11'0 0.0
2017-Nov-15 04:29N 65°51' E 013°11'0 0.0
2017-Nov-15 03:59N 65°51' E 013°11'0 0.0
2017-Nov-15 03:29N 65°51' E 013°11'0 0.0
2017-Nov-15 02:56N 65°51' E 013°11'0 0.0
2017-Nov-15 02:29N 65°51' E 013°11'0 0.0
2017-Nov-15 01:56N 65°51' E 013°11'0 0.0
2017-Nov-15 01:29N 65°51' E 013°11'0 0.0
2017-Nov-15 00:59N 65°51' E 013°11'0 0.0
2017-Nov-15 00:29N 65°51' E 013°11'0 0.0
2017-Nov-14 23:59N 65°51' E 013°11'0 0.0
2017-Nov-14 23:29N 65°51' E 013°11'0 0.0
2017-Nov-14 22:59N 65°51' E 013°11'0 0.0
2017-Nov-14 22:29N 65°51' E 013°11'0 0.0
2017-Nov-14 21:59N 65°51' E 013°11'0 0.0
2017-Nov-14 21:29N 65°51' E 013°11'0 0.0
2017-Nov-14 20:59N 65°51' E 013°11'0 0.0
2017-Nov-14 20:26N 65°51' E 013°11'0 0.0
2017-Nov-14 19:59N 65°51' E 013°11'0 0.0
2017-Nov-14 19:29N 65°51' E 013°11'0 0.0
2017-Nov-14 18:59N 65°51' E 013°11'0 0.0
2017-Nov-14 18:26N 65°51' E 013°11'0 0.0
2017-Nov-14 17:59N 65°51' E 013°11'0 0.0
2017-Nov-14 17:29N 65°51' E 013°11'0 0.0
2017-Nov-14 16:59N 65°51' E 013°11'0 0.0
2017-Nov-14 16:29N 65°51' E 013°11'0 0.0
2017-Nov-14 15:59N 65°51' E 013°11'0 0.0
2017-Nov-14 15:20N 65°51' E 013°11'0 0.0
2017-Nov-14 14:59N 65°51' E 013°11'0 0.0
2017-Nov-14 14:29N 65°51' E 013°11'0 0.0
2017-Nov-14 13:50N 65°51' E 013°11'0 0.0
2017-Nov-14 13:29N 65°51' E 013°11'0 0.0
2017-Nov-14 12:53N 65°51' E 013°11'0 0.0
2017-Nov-14 12:29N 65°51' E 013°11'0 0.0
2017-Nov-14 11:59N 65°51' E 013°11'0 0.0
2017-Nov-14 11:29N 65°51' E 013°11'0 0.0
2017-Nov-14 10:59N 65°51' E 013°11'0 0.0
2017-Nov-14 10:29N 65°51' E 013°11'0 0.0
2017-Nov-14 09:56N 65°51' E 013°11'0 0.0
2017-Nov-14 09:28N 65°51' E 013°11'0 0.0
2017-Nov-14 08:58N 65°51' E 013°11'0 0.0
2017-Nov-14 08:28N 65°51' E 013°11'0 0.0
2017-Nov-14 07:58N 65°51' E 013°11'0 0.0
2017-Nov-14 07:28N 65°51' E 013°11'0 0.0
2017-Nov-14 06:58N 65°51' E 013°11'0 0.0
2017-Nov-14 06:25N 65°51' E 013°11'0 0.0
2017-Nov-14 05:58N 65°51' E 013°11'0 0.0
2017-Nov-14 05:25N 65°51' E 013°11'0 0.0
2017-Nov-14 04:58N 65°51' E 013°11'0 0.0
2017-Nov-14 04:28N 65°51' E 013°11'0 0.0
2017-Nov-14 03:58N 65°51' E 013°11'0 0.0
2017-Nov-14 03:28N 65°51' E 013°11'0 0.0
2017-Nov-14 02:46N 65°51' E 013°11'0 0.0
2017-Nov-14 02:28N 65°51' E 013°11'0 0.0
2017-Nov-14 01:58N 65°51' E 013°11'0 0.0
2017-Nov-14 01:28N 65°51' E 013°11'0 0.0
2017-Nov-14 00:58N 65°51' E 013°11'0 0.0
2017-Nov-14 00:28N 65°51' E 013°11'0 0.0
2017-Nov-13 23:58N 65°51' E 013°11'0 0.0
2017-Nov-13 23:28N 65°51' E 013°11'0 0.0
2017-Nov-13 22:58N 65°51' E 013°11'0 0.0
2017-Nov-13 22:25N 65°51' E 013°11'0 0.0
2017-Nov-13 21:58N 65°51' E 013°11'0 0.0
2017-Nov-13 01:58N 65°51' E 013°11'0 0.0
2017-Nov-13 01:28N 65°51' E 013°11'0 0.0
2017-Nov-13 00:55N 65°51' E 013°11'0 0.0
2017-Nov-13 00:25N 65°51' E 013°11'0 0.0
2017-Nov-12 23:58N 65°51' E 013°11'0 0.0
2017-Nov-12 23:28N 65°51' E 013°11'0 0.0
2017-Nov-12 22:58N 65°51' E 013°11'0 0.0
2017-Nov-12 22:28N 65°51' E 013°11'0 0.0
2017-Nov-12 21:58N 65°51' E 013°11'0 0.0
2017-Nov-12 21:28N 65°51' E 013°11'0 0.0
2017-Nov-12 20:58N 65°51' E 013°11'0 0.0
2017-Nov-12 20:28N 65°51' E 013°11'0 0.0
2017-Nov-12 19:58N 65°51' E 013°11'0 0.0
2017-Nov-12 19:28N 65°51' E 013°11'0 0.0
2017-Nov-12 18:58N 65°51' E 013°11'0 0.0
2017-Nov-12 18:28N 65°51' E 013°11'0 0.0
2017-Nov-12 17:58N 65°51' E 013°11'0 0.0
2017-Nov-12 17:28N 65°51' E 013°11'0 0.0
2017-Nov-12 16:58N 65°51' E 013°11'0 0.0
2017-Nov-12 16:28N 65°51' E 013°11'0 0.0
2017-Nov-12 15:58N 65°51' E 013°11'0 0.0
2017-Nov-12 15:28N 65°51' E 013°11'0 0.0
2017-Nov-12 14:58N 65°51' E 013°11'0 0.0
2017-Nov-12 14:28N 65°51' E 013°11'0 0.0
2017-Nov-12 13:58N 65°51' E 013°11'0 0.0
2017-Nov-12 13:25N 65°51' E 013°11'0 0.0
2017-Nov-12 12:58N 65°51' E 013°11'0 0.0
2017-Nov-12 12:28N 65°51' E 013°11'0 0.0
2017-Nov-12 11:58N 65°51' E 013°11'0 0.0
2017-Nov-12 11:28N 65°51' E 013°11'0 0.0
2017-Nov-12 10:55N 65°51' E 013°11'0 0.0
2017-Nov-12 10:28N 65°51' E 013°11'0 0.0
2017-Nov-12 09:55N 65°51' E 013°11'0 0.0
2017-Nov-12 09:25N 65°51' E 013°11'0 0.0
2017-Nov-12 08:55N 65°51' E 013°11'0 0.0
2017-Nov-12 08:25N 65°51' E 013°11'0 0.0
2017-Nov-12 07:55N 65°51' E 013°11'0 0.0
2017-Nov-12 07:19N 65°51' E 013°11'0 0.0
2017-Nov-12 06:55N 65°51' E 013°11'0 0.0
2017-Nov-12 06:25N 65°51' E 013°11'0 0.0
2017-Nov-12 05:55N 65°51' E 013°11'0 0.0
2017-Nov-12 05:25N 65°51' E 013°11'0 0.0
2017-Nov-12 04:55N 65°51' E 013°11'0 0.0
2017-Nov-12 04:25N 65°51' E 013°11'0 0.0
2017-Nov-12 03:55N 65°51' E 013°11'0 0.0
2017-Nov-12 03:25N 65°51' E 013°11'0 0.0
2017-Nov-12 02:49N 65°51' E 013°11'0 0.0
2017-Nov-12 02:25N 65°51' E 013°11'0 0.0
2017-Nov-12 01:58N 65°51' E 013°11'0 0.0
2017-Nov-12 01:28N 65°51' E 013°11'0 0.0
2017-Nov-12 00:58N 65°51' E 013°11'0 0.0
2017-Nov-12 00:28N 65°51' E 013°11'0 0.0
2017-Nov-11 23:58N 65°51' E 013°11'0 0.0
2017-Nov-11 23:25N 65°51' E 013°11'0 0.0
2017-Nov-11 22:58N 65°51' E 013°11'0 0.0
2017-Nov-11 22:28N 65°51' E 013°11'0 0.0
2017-Nov-11 21:58N 65°51' E 013°11'0 0.0
2017-Nov-11 21:28N 65°51' E 013°11'0 0.0
2017-Nov-11 20:58N 65°51' E 013°11'0 0.0
2017-Nov-11 20:28N 65°51' E 013°11'0 0.0
2017-Nov-11 19:58N 65°51' E 013°11'0 0.0
2017-Nov-11 19:28N 65°51' E 013°11'0 0.0
2017-Nov-11 18:58N 65°51' E 013°11'0 0.0
2017-Nov-11 18:28N 65°51' E 013°11'0 0.0
2017-Nov-11 17:58N 65°51' E 013°11'0 0.0
2017-Nov-11 17:28N 65°51' E 013°11'0 0.0
2017-Nov-11 16:58N 65°51' E 013°11'0 0.6
2017-Nov-11 16:30N 65°51' E 013°11'4 8.2
2017-Nov-11 16:00N 65°55' E 013°05'611.3
2017-Nov-11 15:30N 65°58' E 012°54'5 9.3
2017-Nov-11 15:00N 66°03' E 012°56'612.5
2017-Nov-11 14:31N 66°02' E 012°40'5 9.5
2017-Nov-11 14:00N 66°07' E 012°40'612.4
2017-Nov-11 13:30N 66°13' E 012°38'611.8
2017-Nov-11 13:00N 66°15' E 012°25'611.8
2017-Nov-11 12:30N 66°17' E 012°11'612.7
2017-Nov-11 12:00N 66°15' E 011°55'16413.2
2017-Nov-10 23:33N 63°59' E 008°17'114.2
2017-Nov-10 23:30N 63°58' E 008°16'714.2
2017-Nov-10 23:00N 63°52' E 008°08'714.5
2017-Nov-10 22:30N 63°46' E 007°59'714.5
2017-Nov-10 22:00N 63°40' E 007°50'714.9
2017-Nov-10 21:30N 63°34' E 007°41'713.3
2017-Nov-10 21:00N 63°29' E 007°33'4 7.9
2017-Nov-10 20:30N 63°25' E 007°35'4 7.7
2017-Nov-10 20:00N 63°21' E 007°36'4 8.3
2017-Nov-10 19:30N 63°17' E 007°38'3 7.0
2017-Nov-10 19:01N 63°14' E 007°42'510.0
2017-Nov-10 18:30N 63°09' E 007°41'713.2
2017-Nov-10 18:01N 63°02' E 007°41'4 8.5
2017-Nov-10 17:30N 62°58' E 007°44'0 0.0
2017-Nov-10 17:00N 62°58' E 007°44'0 0.0
2017-Nov-10 16:30N 62°58' E 007°44'0 0.0
2017-Nov-10 16:00N 62°58' E 007°44'0 0.0
2017-Nov-10 15:30N 62°58' E 007°44'0 0.0
2017-Nov-10 15:00N 62°58' E 007°44'0 0.0
2017-Nov-10 14:30N 62°58' E 007°44'0 0.0
2017-Nov-10 14:00N 62°58' E 007°44'0 0.0
2017-Nov-10 13:30N 62°58' E 007°44'0 0.3
2017-Nov-10 13:00N 62°58' E 007°44'5 9.1
2017-Nov-10 12:31N 63°03' E 007°41'612.5
2017-Nov-10 12:01N 63°09' E 007°42'5 9.8
2017-Nov-10 11:31N 63°14' E 007°42'611.7
2017-Nov-10 11:01N 63°14' E 007°29'612.7
2017-Nov-10 10:31N 63°11' E 007°16'612.6
2017-Nov-10 10:00N 63°08' E 007°04'612.3
2017-Nov-10 09:30N 63°05' E 006°53'713.2
2017-Nov-10 09:00N 63°00' E 006°42'712.7
2017-Nov-10 08:29N 62°56' E 006°30'611.8
2017-Nov-10 08:00N 62°53' E 006°20'612.0
2017-Nov-10 07:30N 62°49' E 006°10'611.8
2017-Nov-10 07:00N 62°45' E 006°00'611.2
2017-Nov-10 06:30N 62°42' E 005°51'611.1
2017-Nov-10 06:00N 62°38' E 005°42'611.4
2017-Nov-10 05:30N 62°34' E 005°33'611.9
2017-Nov-10 05:00N 62°30' E 005°24'612.3
2017-Nov-10 04:30N 62°26' E 005°14'612.2
2017-Nov-10 04:00N 62°21' E 005°04'612.3
2017-Nov-10 03:30N 62°18' E 004°54'712.8
2017-Nov-10 03:00N 62°13' E 004°44'612.0
2017-Nov-10 02:30N 62°09' E 004°36'53812.3
2017-Nov-08 06:50N 53°11' E 004°30'515.1
2017-Nov-08 06:30N 53°07' E 004°27'714.5
2017-Nov-08 06:01N 52°60' E 004°22'714.4
2017-Nov-08 05:30N 52°53' E 004°17'713.9
2017-Nov-08 05:00N 52°48' E 004°11'714.2
2017-Nov-08 04:31N 52°42' E 004°03'713.8
2017-Nov-08 04:00N 52°37' E 003°57'713.8
2017-Nov-08 03:30N 52°30' E 003°55'713.4
2017-Nov-08 02:59N 52°23' E 003°53'612.9
2017-Nov-08 02:30N 52°17' E 003°52'612.7
2017-Nov-08 02:00N 52°10' E 003°54'612.3
2017-Nov-08 01:30N 52°04' E 003°53'3 6.6
2017-Nov-08 01:01N 52°02' E 003°56'713.2
2017-Nov-08 00:30N 51°58' E 004°05'1 2.1
2017-Nov-07 23:58N 51°57' E 004°04'0 0.0
2017-Nov-07 23:28N 51°57' E 004°04'0 0.0
2017-Nov-07 22:58N 51°57' E 004°04'0 0.0
2017-Nov-07 22:28N 51°57' E 004°04'  
Track history (hours):
 
Tides and Currents Weather Stations Pressure Air Temp Water Temp Dewpoint Dewpoint Depression Visibility Wind Speed Wind Dir Waves Ship Positions

Katharina

Last reported at 2017-Nov-17 22:08 UTC. Time now 2017-Nov-19 01:29 UTC.
Position N 59°46' E 004°37'.

Length 146 m; draft 7.8 m.

Type: Ship (hazmat cat A). MMSI: 305305000.

Date/timePositionNaut miles runAvg speedWind from/ knotsBaromVisibWave heightAir tempDewpointWater temp
2017-Nov-17 22:08N 59°46' E 004°37'1 9.6
2017-Nov-17 22:00N 59°47' E 004°38'5 9.6
2017-Nov-17 21:30N 59°52' E 004°41'5 9.2
2017-Nov-17 21:00N 59°56' E 004°45'5 9.1
2017-Nov-17 20:30N 59°60' E 004°49'4 8.6
2017-Nov-17 20:00N 60°04' E 004°52'4 8.3
2017-Nov-17 19:30N 60°08' E 004°56'5 9.7
2017-Nov-17 19:00N 60°09' E 005°05'510.5
2017-Nov-17 18:29N 60°14' E 005°10'612.0
2017-Nov-17 18:00N 60°20' E 005°12'611.1
2017-Nov-17 17:30N 60°25' E 005°05'612.8
2017-Nov-17 17:00N 60°30' E 004°58'713.3
2017-Nov-17 16:30N 60°36' E 004°54'613.1
2017-Nov-17 16:00N 60°42' E 004°49'611.3
2017-Nov-17 15:30N 60°47' E 004°45'5 9.6
2017-Nov-17 15:00N 60°52' E 004°47'510.7
2017-Nov-17 14:30N 60°57' E 004°45'510.6
2017-Nov-17 14:00N 61°02' E 004°53'612.0
2017-Nov-17 13:30N 61°06' E 005°01'612.3
2017-Nov-17 13:00N 61°12' E 005°00'511.2
2017-Nov-17 12:30N 61°17' E 004°55'510.1
2017-Nov-17 12:00N 61°20' E 005°03'612.0
2017-Nov-17 11:30N 61°25' E 004°58'611.7
2017-Nov-17 11:00N 61°31' E 005°00'511.2
2017-Nov-17 10:30N 61°36' E 004°58'611.6
2017-Nov-17 10:00N 61°42' E 004°58'4 7.6
2017-Nov-17 09:30N 61°46' E 004°60'3 5.7
2017-Nov-17 09:00N 61°48' E 005°04'3 6.6
2017-Nov-17 08:30N 61°49' E 005°11'3 6.9
2017-Nov-17 08:00N 61°52' E 005°15'510.3
2017-Nov-17 07:30N 61°56' E 005°07'5 9.6
2017-Nov-17 07:00N 62°00' E 005°10'510.4
2017-Nov-17 06:30N 62°04' E 005°03'4 7.9
2017-Nov-17 06:00N 62°08' E 004°59'4 7.4
2017-Nov-17 05:30N 62°11' E 005°01'3 6.6
2017-Nov-17 05:00N 62°14' E 005°06'4 7.0
2017-Nov-17 04:30N 62°16' E 005°12'4 7.4
2017-Nov-17 04:00N 62°19' E 005°17'4 8.0
2017-Nov-17 03:30N 62°22' E 005°22'3 6.5
2017-Nov-17 03:00N 62°24' E 005°28'3 6.6
2017-Nov-17 02:30N 62°26' E 005°33'4 7.6
2017-Nov-17 02:00N 62°27' E 005°41'5 9.9
2017-Nov-17 01:30N 62°27' E 005°52'510.5
2017-Nov-17 01:00N 62°28' E 006°03'5 9.3
2017-Nov-17 00:30N 62°32' E 006°09'611.4
2017-Nov-17 00:00N 62°36' E 006°17'611.0
2017-Nov-16 23:30N 62°40' E 006°26'611.5
2017-Nov-16 23:00N 62°45' E 006°32'611.3
2017-Nov-16 22:30N 62°50' E 006°39'510.7
2017-Nov-16 22:00N 62°54' E 006°45'510.4
2017-Nov-16 21:30N 62°59' E 006°51'5 9.8
2017-Nov-16 21:00N 63°01' E 007°01'5 9.7
2017-Nov-16 20:30N 63°03' E 007°10'510.3
2017-Nov-16 20:01N 63°04' E 007°21'510.7
2017-Nov-16 19:30N 63°06' E 007°32'4 8.7
2017-Nov-16 19:00N 63°06' E 007°41'4 7.9
2017-Nov-16 18:30N 63°02' E 007°41'3 6.8
2017-Nov-16 18:00N 62°59' E 007°45'1 2.3
2017-Nov-16 17:29N 62°58' E 007°44'0 0.0
2017-Nov-16 16:59N 62°58' E 007°44'0 0.0
2017-Nov-16 16:29N 62°58' E 007°44'0 0.0
2017-Nov-16 15:59N 62°58' E 007°44'0 0.0
2017-Nov-16 15:29N 62°58' E 007°44'0 0.0
2017-Nov-16 14:59N 62°58' E 007°44'0 0.0
2017-Nov-16 14:29N 62°58' E 007°44'0 0.0
2017-Nov-16 13:59N 62°58' E 007°44'0 0.4
2017-Nov-16 13:30N 62°58' E 007°44'4 8.0
2017-Nov-16 13:00N 63°02' E 007°41'612.2
2017-Nov-16 12:30N 63°08' E 007°41'510.5
2017-Nov-16 12:00N 63°13' E 007°43'611.2
2017-Nov-16 11:30N 63°18' E 007°37'611.4
2017-Nov-16 11:00N 63°24' E 007°38'510.9
2017-Nov-16 10:30N 63°29' E 007°39'610.9
2017-Nov-16 10:00N 63°34' E 007°45'611.7
2017-Nov-16 09:30N 63°39' E 007°53'611.5
2017-Nov-16 09:00N 63°44' E 008°00'511.0
2017-Nov-16 08:30N 63°48' E 008°08'510.2
2017-Nov-16 08:00N 63°52' E 008°14'510.1
2017-Nov-16 07:30N 63°56' E 008°21'5 9.8
2017-Nov-16 07:00N 63°59' E 008°30'4010.3
2017-Nov-16 03:09N 64°22' E 009°44'210.7
2017-Nov-16 03:00N 64°23' E 009°47'510.7
2017-Nov-16 02:30N 64°26' E 009°58'510.7
2017-Nov-16 02:00N 64°29' E 010°08'510.7
2017-Nov-16 01:30N 64°31' E 010°19'510.9
2017-Nov-16 01:00N 64°34' E 010°30'510.1
2017-Nov-16 00:30N 64°36' E 010°41'5 9.9
2017-Nov-16 00:00N 64°38' E 010°52'5 9.1
2017-Nov-15 23:30N 64°36' E 011°01'510.9
2017-Nov-15 23:00N 64°31' E 011°09'510.9
2017-Nov-15 22:30N 64°29' E 011°20'5 9.9
2017-Nov-15 22:00N 64°27' E 011°31'0 0.1
2017-Nov-15 21:30N 64°27' E 011°31'0 0.0
2017-Nov-15 21:00N 64°27' E 011°31'0 0.0
2017-Nov-15 20:30N 64°27' E 011°31'0 0.0
2017-Nov-15 20:00N 64°27' E 011°31'0 0.6
2017-Nov-15 19:30N 64°27' E 011°30'5 9.7
2017-Nov-15 19:00N 64°29' E 011°19'713.0
2017-Nov-15 18:30N 64°33' E 011°07'713.6
2017-Nov-15 18:00N 64°38' E 010°57'5 9.4
2017-Nov-15 17:29N 64°41' E 010°48'510.7
2017-Nov-15 17:00N 64°44' E 010°58'612.3
2017-Nov-15 16:30N 64°49' E 011°08'5 9.6
2017-Nov-15 16:01N 64°52' E 011°16'611.8
2017-Nov-15 15:30N 64°57' E 011°23'611.3
2017-Nov-15 15:00N 65°01' E 011°32'611.6
2017-Nov-15 14:30N 65°04' E 011°45'612.3
2017-Nov-15 14:00N 65°09' E 011°50'612.3
2017-Nov-15 13:30N 65°15' E 011°56'612.4
2017-Nov-15 13:00N 65°21' E 012°02'510.6
2017-Nov-15 12:30N 65°25' E 011°56'611.2
2017-Nov-15 12:00N 65°31' E 012°01'611.9
2017-Nov-15 11:29N 65°36' E 012°10'612.2
2017-Nov-15 10:59N 65°41' E 012°15'612.0
2017-Nov-15 10:30N 65°46' E 012°22'713.2
2017-Nov-15 10:00N 65°51' E 012°32'714.1
2017-Nov-15 09:30N 65°57' E 012°43'611.6
2017-Nov-15 08:59N 65°57' E 012°58'613.1
2017-Nov-15 08:30N 65°53' E 013°09'2 3.5
2017-Nov-15 07:59N 65°51' E 013°11'0 0.0
2017-Nov-15 07:29N 65°51' E 013°11'0 0.0
2017-Nov-15 06:59N 65°51' E 013°11'0 0.0
2017-Nov-15 06:29N 65°51' E 013°11'0 0.0
2017-Nov-15 05:59N 65°51' E 013°11'0 0.0
2017-Nov-15 05:29N 65°51' E 013°11'0 0.0
2017-Nov-15 04:53N 65°51' E 013°11'0 0.0
2017-Nov-15 04:29N 65°51' E 013°11'0 0.0
2017-Nov-15 03:59N 65°51' E 013°11'0 0.0
2017-Nov-15 03:29N 65°51' E 013°11'0 0.0
2017-Nov-15 02:56N 65°51' E 013°11'0 0.0
2017-Nov-15 02:29N 65°51' E 013°11'0 0.0
2017-Nov-15 01:56N 65°51' E 013°11'0 0.0
2017-Nov-15 01:29N 65°51' E 013°11'0 0.0
2017-Nov-15 00:59N 65°51' E 013°11'0 0.0
2017-Nov-15 00:29N 65°51' E 013°11'0 0.0
2017-Nov-14 23:59N 65°51' E 013°11'0 0.0
2017-Nov-14 23:29N 65°51' E 013°11'0 0.0
2017-Nov-14 22:59N 65°51' E 013°11'0 0.0
2017-Nov-14 22:29N 65°51' E 013°11'0 0.0
2017-Nov-14 21:59N 65°51' E 013°11'0 0.0
2017-Nov-14 21:29N 65°51' E 013°11'0 0.0
2017-Nov-14 20:59N 65°51' E 013°11'0 0.0
2017-Nov-14 20:26N 65°51' E 013°11'0 0.0
2017-Nov-14 19:59N 65°51' E 013°11'0 0.0
2017-Nov-14 19:29N 65°51' E 013°11'0 0.0
2017-Nov-14 18:59N 65°51' E 013°11'0 0.0
2017-Nov-14 18:26N 65°51' E 013°11'0 0.0
2017-Nov-14 17:59N 65°51' E 013°11'0 0.0
2017-Nov-14 17:29N 65°51' E 013°11'0 0.0
2017-Nov-14 16:59N 65°51' E 013°11'0 0.0
2017-Nov-14 16:29N 65°51' E 013°11'0 0.0
2017-Nov-14 15:59N 65°51' E 013°11'0 0.0
2017-Nov-14 15:20N 65°51' E 013°11'0 0.0
2017-Nov-14 14:59N 65°51' E 013°11'0 0.0
2017-Nov-14 14:29N 65°51' E 013°11'0 0.0
2017-Nov-14 13:50N 65°51' E 013°11'0 0.0
2017-Nov-14 13:29N 65°51' E 013°11'0 0.0
2017-Nov-14 12:53N 65°51' E 013°11'0 0.0
2017-Nov-14 12:29N 65°51' E 013°11'0 0.0
2017-Nov-14 11:59N 65°51' E 013°11'0 0.0
2017-Nov-14 11:29N 65°51' E 013°11'0 0.0
2017-Nov-14 10:59N 65°51' E 013°11'0 0.0
2017-Nov-14 10:29N 65°51' E 013°11'0 0.0
2017-Nov-14 09:56N 65°51' E 013°11'0 0.0
2017-Nov-14 09:28N 65°51' E 013°11'0 0.0
2017-Nov-14 08:58N 65°51' E 013°11'0 0.0
2017-Nov-14 08:28N 65°51' E 013°11'0 0.0
2017-Nov-14 07:58N 65°51' E 013°11'0 0.0
2017-Nov-14 07:28N 65°51' E 013°11'0 0.0
2017-Nov-14 06:58N 65°51' E 013°11'0 0.0
2017-Nov-14 06:25N 65°51' E 013°11'0 0.0
2017-Nov-14 05:58N 65°51' E 013°11'0 0.0
2017-Nov-14 05:25N 65°51' E 013°11'0 0.0
2017-Nov-14 04:58N 65°51' E 013°11'0 0.0
2017-Nov-14 04:28N 65°51' E 013°11'0 0.0
2017-Nov-14 03:58N 65°51' E 013°11'0 0.0
2017-Nov-14 03:28N 65°51' E 013°11'0 0.0
2017-Nov-14 02:46N 65°51' E 013°11'0 0.0
2017-Nov-14 02:28N 65°51' E 013°11'0 0.0
2017-Nov-14 01:58N 65°51' E 013°11'0 0.0
2017-Nov-14 01:28N 65°51' E 013°11'0 0.0
2017-Nov-14 00:58N 65°51' E 013°11'0 0.0
2017-Nov-14 00:28N 65°51' E 013°11'0 0.0
2017-Nov-13 23:58N 65°51' E 013°11'0 0.0
2017-Nov-13 23:28N 65°51' E 013°11'0 0.0
2017-Nov-13 22:58N 65°51' E 013°11'0 0.0
2017-Nov-13 22:25N 65°51' E 013°11'0 0.0
2017-Nov-13 21:58N 65°51' E 013°11'0 0.0
2017-Nov-13 01:58N 65°51' E 013°11'0 0.0
2017-Nov-13 01:28N 65°51' E 013°11'0 0.0
2017-Nov-13 00:55N 65°51' E 013°11'0 0.0
2017-Nov-13 00:25N 65°51' E 013°11'0 0.0
2017-Nov-12 23:58N 65°51' E 013°11'0 0.0
2017-Nov-12 23:28N 65°51' E 013°11'0 0.0
2017-Nov-12 22:58N 65°51' E 013°11'0 0.0
2017-Nov-12 22:28N 65°51' E 013°11'0 0.0
2017-Nov-12 21:58N 65°51' E 013°11'0 0.0
2017-Nov-12 21:28N 65°51' E 013°11'0 0.0
2017-Nov-12 20:58N 65°51' E 013°11'0 0.0
2017-Nov-12 20:28N 65°51' E 013°11'0 0.0
2017-Nov-12 19:58N 65°51' E 013°11'0 0.0
2017-Nov-12 19:28N 65°51' E 013°11'0 0.0
2017-Nov-12 18:58N 65°51' E 013°11'0 0.0
2017-Nov-12 18:28N 65°51' E 013°11'0 0.0
2017-Nov-12 17:58N 65°51' E 013°11'0 0.0
2017-Nov-12 17:28N 65°51' E 013°11'0 0.0
2017-Nov-12 16:58N 65°51' E 013°11'0 0.0
2017-Nov-12 16:28N 65°51' E 013°11'0 0.0
2017-Nov-12 15:58N 65°51' E 013°11'0 0.0
2017-Nov-12 15:28N 65°51' E 013°11'0 0.0
2017-Nov-12 14:58N 65°51' E 013°11'0 0.0
2017-Nov-12 14:28N 65°51' E 013°11'0 0.0
2017-Nov-12 13:58N 65°51' E 013°11'0 0.0
2017-Nov-12 13:25N 65°51' E 013°11'0 0.0
2017-Nov-12 12:58N 65°51' E 013°11'0 0.0
2017-Nov-12 12:28N 65°51' E 013°11'0 0.0
2017-Nov-12 11:58N 65°51' E 013°11'0 0.0
2017-Nov-12 11:28N 65°51' E 013°11'0 0.0
2017-Nov-12 10:55N 65°51' E 013°11'0 0.0
2017-Nov-12 10:28N 65°51' E 013°11'0 0.0
2017-Nov-12 09:55N 65°51' E 013°11'0 0.0
2017-Nov-12 09:25N 65°51' E 013°11'0 0.0
2017-Nov-12 08:55N 65°51' E 013°11'0 0.0
2017-Nov-12 08:25N 65°51' E 013°11'0 0.0
2017-Nov-12 07:55N 65°51' E 013°11'0 0.0
2017-Nov-12 07:19N 65°51' E 013°11'0 0.0
2017-Nov-12 06:55N 65°51' E 013°11'0 0.0
2017-Nov-12 06:25N 65°51' E 013°11'0 0.0
2017-Nov-12 05:55N 65°51' E 013°11'0 0.0
2017-Nov-12 05:25N 65°51' E 013°11'0 0.0
2017-Nov-12 04:55N 65°51' E 013°11'0 0.0
2017-Nov-12 04:25N 65°51' E 013°11'0 0.0
2017-Nov-12 03:55N 65°51' E 013°11'0 0.0
2017-Nov-12 03:25N 65°51' E 013°11'0 0.0
2017-Nov-12 02:49N 65°51' E 013°11'0 0.0
2017-Nov-12 02:25N 65°51' E 013°11'0 0.0
2017-Nov-12 01:58N 65°51' E 013°11'0 0.0
2017-Nov-12 01:28N 65°51' E 013°11'0 0.0
2017-Nov-12 00:58N 65°51' E 013°11'0 0.0
2017-Nov-12 00:28N 65°51' E 013°11'0 0.0
2017-Nov-11 23:58N 65°51' E 013°11'0 0.0
2017-Nov-11 23:25N 65°51' E 013°11'0 0.0
2017-Nov-11 22:58N 65°51' E 013°11'0 0.0
2017-Nov-11 22:28N 65°51' E 013°11'0 0.0
2017-Nov-11 21:58N 65°51' E 013°11'0 0.0
2017-Nov-11 21:28N 65°51' E 013°11'0 0.0
2017-Nov-11 20:58N 65°51' E 013°11'0 0.0
2017-Nov-11 20:28N 65°51' E 013°11'0 0.0
2017-Nov-11 19:58N 65°51' E 013°11'0 0.0
2017-Nov-11 19:28N 65°51' E 013°11'0 0.0
2017-Nov-11 18:58N 65°51' E 013°11'0 0.0
2017-Nov-11 18:28N 65°51' E 013°11'0 0.0
2017-Nov-11 17:58N 65°51' E 013°11'0 0.0
2017-Nov-11 17:28N 65°51' E 013°11'0 0.0
2017-Nov-11 16:58N 65°51' E 013°11'0 0.6
2017-Nov-11 16:30N 65°51' E 013°11'4 8.2
2017-Nov-11 16:00N 65°55' E 013°05'611.3
2017-Nov-11 15:30N 65°58' E 012°54'5 9.3
2017-Nov-11 15:00N 66°03' E 012°56'612.5
2017-Nov-11 14:31N 66°02' E 012°40'5 9.5
2017-Nov-11 14:00N 66°07' E 012°40'612.4
2017-Nov-11 13:30N 66°13' E 012°38'611.8
2017-Nov-11 13:00N 66°15' E 012°25'611.8
2017-Nov-11 12:30N 66°17' E 012°11'612.7
2017-Nov-11 12:00N 66°15' E 011°55'16413.2
2017-Nov-10 23:33N 63°59' E 008°17'114.2
2017-Nov-10 23:30N 63°58' E 008°16'714.2
2017-Nov-10 23:00N 63°52' E 008°08'714.5
2017-Nov-10 22:30N 63°46' E 007°59'714.5
2017-Nov-10 22:00N 63°40' E 007°50'714.9
2017-Nov-10 21:30N 63°34' E 007°41'713.3
2017-Nov-10 21:00N 63°29' E 007°33'4 7.9
2017-Nov-10 20:30N 63°25' E 007°35'4 7.7
2017-Nov-10 20:00N 63°21' E 007°36'4 8.3
2017-Nov-10 19:30N 63°17' E 007°38'3 7.0
2017-Nov-10 19:01N 63°14' E 007°42'510.0
2017-Nov-10 18:30N 63°09' E 007°41'713.2
2017-Nov-10 18:01N 63°02' E 007°41'4 8.5
2017-Nov-10 17:30N 62°58' E 007°44'0 0.0
2017-Nov-10 17:00N 62°58' E 007°44'0 0.0
2017-Nov-10 16:30N 62°58' E 007°44'0 0.0
2017-Nov-10 16:00N 62°58' E 007°44'0 0.0
2017-Nov-10 15:30N 62°58' E 007°44'0 0.0
2017-Nov-10 15:00N 62°58' E 007°44'0 0.0
2017-Nov-10 14:30N 62°58' E 007°44'0 0.0
2017-Nov-10 14:00N 62°58' E 007°44'0 0.0
2017-Nov-10 13:30N 62°58' E 007°44'0 0.3
2017-Nov-10 13:00N 62°58' E 007°44'5 9.1
2017-Nov-10 12:31N 63°03' E 007°41'612.5
2017-Nov-10 12:01N 63°09' E 007°42'5 9.8
2017-Nov-10 11:31N 63°14' E 007°42'611.7
2017-Nov-10 11:01N 63°14' E 007°29'612.7
2017-Nov-10 10:31N 63°11' E 007°16'612.6
2017-Nov-10 10:00N 63°08' E 007°04'612.3
2017-Nov-10 09:30N 63°05' E 006°53'713.2
2017-Nov-10 09:00N 63°00' E 006°42'712.7
2017-Nov-10 08:29N 62°56' E 006°30'611.8
2017-Nov-10 08:00N 62°53' E 006°20'612.0
2017-Nov-10 07:30N 62°49' E 006°10'611.8
2017-Nov-10 07:00N 62°45' E 006°00'611.2
2017-Nov-10 06:30N 62°42' E 005°51'611.1
2017-Nov-10 06:00N 62°38' E 005°42'611.4
2017-Nov-10 05:30N 62°34' E 005°33'611.9
2017-Nov-10 05:00N 62°30' E 005°24'612.3
2017-Nov-10 04:30N 62°26' E 005°14'612.2
2017-Nov-10 04:00N 62°21' E 005°04'612.3
2017-Nov-10 03:30N 62°18' E 004°54'712.8
2017-Nov-10 03:00N 62°13' E 004°44'612.0
2017-Nov-10 02:30N 62°09' E 004°36'53812.3
2017-Nov-08 06:50N 53°11' E 004°30'515.1
2017-Nov-08 06:30N 53°07' E 004°27'714.5
2017-Nov-08 06:01N 52°60' E 004°22'714.4
2017-Nov-08 05:30N 52°53' E 004°17'713.9
2017-Nov-08 05:00N 52°48' E 004°11'714.2
2017-Nov-08 04:31N 52°42' E 004°03'713.8
2017-Nov-08 04:00N 52°37' E 003°57'713.8
2017-Nov-08 03:30N 52°30' E 003°55'713.4
2017-Nov-08 02:59N 52°23' E 003°53'612.9
2017-Nov-08 02:30N 52°17' E 003°52'612.7
2017-Nov-08 02:00N 52°10' E 003°54'612.3
2017-Nov-08 01:30N 52°04' E 003°53'3 6.6
2017-Nov-08 01:01N 52°02' E 003°56'713.2
2017-Nov-08 00:30N 51°58' E 004°05'1 2.1
2017-Nov-07 23:58N 51°57' E 004°04'0 0.0
2017-Nov-07 23:28N 51°57' E 004°04'0 0.0
2017-Nov-07 22:58N 51°57' E 004°04'0 0.0
2017-Nov-07 22:28N 51°57' E 004°04'  

Dump ship's entire track history